Time;durP1;ratioP1;P1;durP2;ratioP2;P2;SDS_P1;SDS_P2;PMS_P1;PMS_P2;Temp;Humidity;BMP_temperature;BMP_pressure;BME280_temperature;BME280_humidity;BME280_pressure;Samples;Min_cycle;Max_cycle;Signal;HPM_P1;HPM_P2
2023/01/13 00:00:04;;;;;;;1.10;0.70;;;9.00;99.90;;;;;;4951339;28;20489;-53
2023/01/13 00:02:31;;;;;;;0.80;0.80;;;9.00;99.90;;;;;;4950989;28;20486;-53
2023/01/13 00:04:58;;;;;;;2.20;0.77;;;9.00;99.90;;;;;;4950006;28;20556;-52
2023/01/13 00:07:25;;;;;;;0.70;0.50;;;9.00;99.90;;;;;;4951439;28;20520;-53
2023/01/13 00:09:51;;;;;;;1.10;0.60;;;9.00;99.90;;;;;;4948456;28;20498;-53
2023/01/13 00:12:18;;;;;;;0.60;0.60;;;9.00;99.90;;;;;;4950246;28;20577;-53
2023/01/13 00:14:45;;;;;;;0.73;0.73;;;9.00;99.90;;;;;;4951754;28;20465;-53
2023/01/13 00:17:11;;;;;;;0.60;0.60;;;9.10;99.90;;;;;;4952063;28;20921;-53
2023/01/13 00:19:38;;;;;;;0.80;0.60;;;9.10;99.90;;;;;;4949521;28;20493;-53
2023/01/13 00:22:06;;;;;;;0.60;0.50;;;9.10;99.90;;;;;;4952400;28;20532;-53
2023/01/13 00:24:32;;;;;;;0.80;0.80;;;9.10;99.90;;;;;;4950195;28;20481;-52
2023/01/13 00:26:59;;;;;;;1.90;0.90;;;9.10;99.90;;;;;;4951405;28;20965;-52
2023/01/13 00:29:26;;;;;;;0.77;0.60;;;9.10;99.90;;;;;;4952180;28;20588;-52
2023/01/13 00:31:52;;;;;;;1.17;0.60;;;9.10;99.90;;;;;;4951958;28;20512;-52
2023/01/13 00:34:19;;;;;;;2.40;0.90;;;9.20;99.90;;;;;;4950743;28;20576;-53
2023/01/13 00:36:45;;;;;;;0.60;0.60;;;9.20;99.90;;;;;;4951474;28;20505;-52
2023/01/13 00:39:14;;;;;;;0.60;0.60;;;9.20;99.90;;;;;;4951005;28;21034;-52
2023/01/13 00:44:21;;;;;;;1.00;0.90;;;9.20;99.90;;;;;;4929636;28;20487;-53
2023/01/13 00:46:47;;;;;;;0.70;0.70;;;9.20;99.90;;;;;;4950932;28;20501;-53
2023/01/13 00:49:14;;;;;;;1.03;0.70;;;9.20;99.90;;;;;;4950819;28;20673;-52
2023/01/13 00:51:40;;;;;;;0.80;0.70;;;9.10;99.90;;;;;;4950308;28;20572;-52
2023/01/13 00:54:07;;;;;;;2.30;0.70;;;9.10;99.90;;;;;;4948935;28;20592;-51
2023/01/13 00:56:35;;;;;;;1.13;0.80;;;9.10;99.90;;;;;;4951067;28;20831;-52
2023/01/13 00:59:02;;;;;;;0.70;0.70;;;9.10;99.90;;;;;;4951280;28;20513;-52
2023/01/13 01:01:29;;;;;;;0.90;0.60;;;9.10;99.90;;;;;;4948373;28;20461;-51
2023/01/13 01:03:55;;;;;;;2.30;0.50;;;9.10;99.90;;;;;;4948138;28;21001;-52
2023/01/13 01:06:26;;;;;;;0.60;0.60;;;9.10;99.90;;;;;;4950255;28;21053;-52
2023/01/13 01:08:53;;;;;;;0.60;0.60;;;9.10;99.90;;;;;;4944649;28;20474;-52
2023/01/13 01:11:22;;;;;;;0.60;0.50;;;9.10;99.90;;;;;;4950627;28;22432;-53
2023/01/13 01:13:51;;;;;;;1.00;0.67;;;9.10;99.90;;;;;;4947226;28;20543;-53
2023/01/13 01:16:20;;;;;;;0.80;0.60;;;9.20;99.90;;;;;;4950136;28;20516;-53
2023/01/13 01:18:48;;;;;;;1.20;0.60;;;9.20;99.90;;;;;;4951497;28;20548;-53
2023/01/13 01:21:16;;;;;;;2.10;0.70;;;9.10;99.90;;;;;;4947255;28;20548;-53
2023/01/13 01:23:43;;;;;;;0.83;0.80;;;9.10;99.90;;;;;;4949956;28;20584;-52
2023/01/13 01:26:13;;;;;;;1.53;0.70;;;9.20;99.90;;;;;;4949146;28;20553;-53
2023/01/13 01:28:40;;;;;;;0.60;0.60;;;9.20;99.90;;;;;;4948163;28;20553;-53
2023/01/13 01:31:09;;;;;;;0.50;0.50;;;9.20;99.90;;;;;;4951231;28;20592;-52
2023/01/13 01:33:36;;;;;;;0.60;0.60;;;9.20;99.90;;;;;;4950181;28;20933;-52
2023/01/13 01:36:04;;;;;;;0.70;0.57;;;9.20;99.90;;;;;;4950577;28;20513;-52
2023/01/13 01:38:30;;;;;;;0.63;0.63;;;9.20;99.90;;;;;;4953000;28;20528;-52
2023/01/13 01:40:57;;;;;;;1.33;0.50;;;9.30;99.90;;;;;;4953598;28;20556;-53
2023/01/13 01:44:00;;;;;;;1.00;0.70;;;9.30;99.90;;;;;;4953342;28;20493;-52
2023/01/13 01:46:31;;;;;;;0.60;0.60;;;9.30;99.90;;;;;;4953154;28;20461;-52
2023/01/13 01:49:03;;;;;;;0.60;0.60;;;9.30;99.90;;;;;;4952774;28;20661;-52
2023/01/13 01:51:33;;;;;;;0.50;0.50;;;9.40;99.90;;;;;;4950179;29;20494;-53
2023/01/13 01:54:03;;;;;;;0.90;0.60;;;9.40;99.90;;;;;;4951697;28;20505;-52
2023/01/13 01:56:30;;;;;;;2.00;0.70;;;9.40;99.90;;;;;;4948944;29;20460;-51
2023/01/13 01:58:57;;;;;;;0.90;0.80;;;9.40;99.90;;;;;;4950285;28;20552;-51
2023/01/13 02:01:23;;;;;;;1.53;0.60;;;9.40;99.90;;;;;;4952911;28;20497;-51
2023/01/13 02:03:57;;;;;;;2.57;0.57;;;9.40;99.90;;;;;;4953223;29;20524;-52
2023/01/13 02:06:24;;;;;;;0.70;0.70;;;9.40;99.90;;;;;;4951293;28;20552;-53
2023/01/13 02:08:52;;;;;;;0.80;0.80;;;9.30;99.90;;;;;;4956259;28;20575;-51
2023/01/13 02:14:14;;;;;;;0.90;0.60;;;9.40;99.90;;;;;;4942976;28;20496;-51
2023/01/13 02:16:47;;;;;;;0.70;0.50;;;9.40;99.90;;;;;;4954114;29;20552;-51
2023/01/13 02:19:31;;;;;;;0.97;0.70;;;9.40;99.90;;;;;;4952916;28;20497;-52
2023/01/13 02:22:18;;;;;;;2.43;0.73;;;9.40;99.90;;;;;;4951340;28;20577;-53
2023/01/13 02:25:11;;;;;;;0.60;0.60;;;9.30;99.90;;;;;;4951373;28;20560;-51
2023/01/13 02:28:02;;;;;;;0.60;0.53;;;9.20;99.90;;;;;;4949435;28;20457;-52
2023/01/13 02:33:49;;;;;;;0.50;0.50;;;9.20;99.90;;;;;;4926396;28;20482;-52
2023/01/13 02:36:24;;;;;;;0.60;0.60;;;9.20;99.90;;;;;;4947981;28;20552;-52
2023/01/13 02:38:56;;;;;;;0.70;0.63;;;9.20;99.90;;;;;;4950552;28;21051;-51
2023/01/13 02:44:14;;;;;;;0.60;0.50;;;9.20;99.90;;;;;;4951516;28;20483;-52
2023/01/13 02:46:49;;;;;;;0.97;0.80;;;9.20;99.90;;;;;;4944532;28;20546;-51
2023/01/13 02:49:24;;;;;;;0.60;0.60;;;9.20;99.90;;;;;;4949850;29;20475;-54
2023/01/13 02:51:53;;;;;;;0.60;0.60;;;9.20;99.90;;;;;;4951189;29;20925;-52
2023/01/13 02:54:25;;;;;;;0.70;0.60;;;9.30;99.90;;;;;;4949446;28;20599;-52
2023/01/13 02:56:54;;;;;;;0.60;0.60;;;9.30;99.90;;;;;;4945876;28;20467;-51
2023/01/13 02:59:25;;;;;;;4.10;0.70;;;9.30;99.90;;;;;;4952738;28;20561;-52
2023/01/13 03:01:55;;;;;;;0.90;0.70;;;9.30;99.90;;;;;;4951716;28;20460;-53
2023/01/13 03:04:50;;;;;;;0.50;0.50;;;9.30;99.90;;;;;;4948858;28;20493;-51
2023/01/13 03:07:45;;;;;;;1.07;0.60;;;9.30;99.90;;;;;;4947086;28;20553;-52
2023/01/13 03:10:24;;;;;;;0.60;0.60;;;9.30;99.90;;;;;;4951290;29;21072;-52
2023/01/13 03:12:57;;;;;;;2.10;0.70;;;9.30;99.90;;;;;;4950652;28;20509;-52
2023/01/13 03:15:35;;;;;;;0.80;0.60;;;9.20;99.90;;;;;;4952393;28;20886;-52
2023/01/13 03:18:12;;;;;;;2.10;0.73;;;9.30;99.90;;;;;;4952771;28;20984;-53
2023/01/13 03:20:43;;;;;;;0.60;0.60;;;9.30;99.90;;;;;;4954151;28;20494;-53
2023/01/13 03:23:15;;;;;;;0.60;0.57;;;9.30;99.90;;;;;;4952160;28;20577;-52
2023/01/13 03:25:49;;;;;;;1.97;0.77;;;9.30;99.90;;;;;;4953086;28;21034;-51
2023/01/13 03:28:23;;;;;;;2.23;0.73;;;9.30;99.90;;;;;;4953426;28;20548;-52
2023/01/13 03:30:54;;;;;;;1.53;0.60;;;9.30;99.90;;;;;;4953621;28;20576;-52
2023/01/13 03:33:28;;;;;;;0.60;0.50;;;9.40;99.90;;;;;;4953598;28;20573;-52
2023/01/13 03:35:59;;;;;;;0.60;0.50;;;9.40;99.90;;;;;;4948945;28;22800;-52
2023/01/13 03:38:31;;;;;;;0.90;0.90;;;9.40;99.90;;;;;;4940321;28;20470;-53
2023/01/13 03:41:02;;;;;;;1.00;0.70;;;9.40;99.90;;;;;;4952471;28;20528;-52
2023/01/13 03:46:26;;;;;;;0.70;0.60;;;9.40;99.90;;;;;;4950626;28;20593;-52
2023/01/13 03:48:57;;;;;;;0.80;0.60;;;9.40;99.90;;;;;;4953379;28;20573;-52
2023/01/13 03:51:28;;;;;;;0.77;0.77;;;9.40;99.90;;;;;;4953693;28;20585;-52
2023/01/13 03:53:58;;;;;;;0.53;0.53;;;9.40;89.60;;;;;;4944142;28;20584;-52
2023/01/13 03:56:27;;;;;;;0.90;0.70;;;9.50;23.00;;;;;;4950166;28;20560;-52
2023/01/13 03:58:54;;;;;;;0.60;0.60;;;9.50;22.50;;;;;;4952704;29;21046;-51
2023/01/13 04:01:25;;;;;;;0.63;0.63;;;9.50;20.50;;;;;;4950346;28;20548;-54
2023/01/13 04:03:58;;;;;;;2.20;0.60;;;9.50;76.80;;;;;;4949875;28;20573;-52
2023/01/13 04:06:31;;;;;;;1.13;0.50;;;9.50;22.00;;;;;;4951367;28;20539;-52
2023/01/13 04:09:05;;;;;;;0.97;0.80;;;9.60;23.40;;;;;;4954896;28;21014;-53
2023/01/13 04:11:36;;;;;;;1.90;0.70;;;9.50;23.20;;;;;;4952044;28;21099;-53
2023/01/13 04:14:04;;;;;;;0.60;0.53;;;9.50;22.30;;;;;;4951784;28;20493;-53
2023/01/13 04:16:31;;;;;;;0.60;0.40;;;9.50;24.90;;;;;;4949560;28;20509;-53
2023/01/13 04:18:59;;;;;;;1.53;0.50;;;9.60;27.10;;;;;;4947947;28;20552;-52
2023/01/13 04:21:26;;;;;;;0.70;0.57;;;9.60;27.40;;;;;;4951620;28;20549;-53
2023/01/13 04:23:52;;;;;;;0.80;0.70;;;9.60;28.60;;;;;;4949725;28;20517;-53
2023/01/13 04:26:19;;;;;;;0.50;0.50;;;9.60;29.30;;;;;;4948212;28;20557;-53
2023/01/13 04:28:46;;;;;;;0.70;0.50;;;9.60;30.40;;;;;;4952652;28;20477;-53
2023/01/13 04:31:12;;;;;;;0.50;0.40;;;9.60;30.10;;;;;;4950878;29;20579;-52
2023/01/13 04:33:39;;;;;;;1.20;0.70;;;9.60;32.60;;;;;;4951890;28;20483;-52
2023/01/13 04:36:07;;;;;;;0.87;0.70;;;9.60;35.40;;;;;;4949958;28;20470;-53
2023/01/13 04:38:34;;;;;;;0.60;0.50;;;9.60;34.40;;;;;;4948273;29;20547;-52
2023/01/13 04:41:00;;;;;;;1.03;0.60;;;9.50;32.00;;;;;;4950547;28;20493;-52
2023/01/13 04:43:27;;;;;;;0.50;0.50;;;9.60;30.40;;;;;;4943040;28;20596;-53
2023/01/13 04:45:53;;;;;;;0.63;0.63;;;9.50;28.60;;;;;;4951641;28;20552;-53
2023/01/13 04:48:20;;;;;;;0.50;0.47;;;9.40;28.30;;;;;;4952154;29;20500;-52
2023/01/13 04:50:46;;;;;;;3.90;0.63;;;9.50;29.20;;;;;;4951596;28;20557;-52
2023/01/13 04:53:14;;;;;;;1.23;0.50;;;9.50;30.00;;;;;;4952009;28;20584;-53
2023/01/13 04:55:43;;;;;;;0.60;0.50;;;9.50;33.60;;;;;;4945586;28;20538;-53
2023/01/13 04:58:10;;;;;;;0.63;0.50;;;9.50;31.80;;;;;;4945332;28;20476;-53
2023/01/13 05:00:38;;;;;;;1.00;0.60;;;9.50;32.80;;;;;;4948198;28;20548;-52
2023/01/13 05:03:04;;;;;;;0.50;0.50;;;9.50;32.30;;;;;;4950237;29;20519;-52
2023/01/13 05:05:31;;;;;;;0.70;0.63;;;9.40;30.20;;;;;;4952125;29;20505;-52
2023/01/13 05:07:58;;;;;;;1.03;0.83;;;9.40;28.90;;;;;;4949988;28;20557;-51
2023/01/13 05:10:26;;;;;;;0.60;0.50;;;9.40;26.40;;;;;;4951878;28;20487;-52
2023/01/13 05:18:24;;;;;;;0.60;0.50;;;9.40;27.50;;;;;;4949823;28;20958;-51
2023/01/13 05:20:51;;;;;;;0.50;0.50;;;9.40;24.20;;;;;;4955693;28;21047;-52
2023/01/13 05:26:03;;;;;;;1.77;0.70;;;9.40;28.50;;;;;;4948990;28;20964;-53
2023/01/13 05:28:32;;;;;;;0.60;0.60;;;9.40;27.50;;;;;;4946721;28;20548;-52
2023/01/13 05:30:58;;;;;;;2.70;1.80;;;9.50;29.50;;;;;;4950755;28;20501;-52
2023/01/13 05:33:25;;;;;;;0.73;0.60;;;9.40;28.80;;;;;;4949718;28;20579;-51
2023/01/13 05:35:52;;;;;;;2.20;0.80;;;9.50;24.90;;;;;;4954018;29;20557;-52
2023/01/13 05:38:18;;;;;;;0.70;0.70;;;9.50;34.00;;;;;;4946487;28;20560;-51
2023/01/13 05:43:45;;;;;;;0.70;0.67;;;9.60;34.00;;;;;;4927261;29;20475;-52
2023/01/13 05:46:13;;;;;;;2.80;0.60;;;9.60;27.00;;;;;;4931943;29;20571;-52
2023/01/13 05:48:42;;;;;;;0.60;0.50;;;9.50;23.70;;;;;;4935630;28;20564;-54
2023/01/13 05:51:11;;;;;;;2.93;0.83;;;9.50;21.50;;;;;;4943084;28;20543;-54
2023/01/13 05:53:39;;;;;;;2.77;0.87;;;9.50;29.80;;;;;;4948135;28;20518;-54
2023/01/13 05:56:07;;;;;;;4.70;1.20;;;9.60;39.20;;;;;;4948461;28;20468;-54
2023/01/13 05:58:34;;;;;;;1.83;1.00;;;9.50;34.80;;;;;;4949685;28;20567;-55
2023/01/13 06:01:05;;;;;;;5.33;1.17;;;9.40;31.90;;;;;;4947380;28;21046;-55
2023/01/13 06:03:31;;;;;;;1.33;1.03;;;9.30;21.40;;;;;;4945100;28;21516;-54
2023/01/13 06:06:00;;;;;;;1.80;1.10;;;9.20;99.90;;;;;;4949785;28;20469;-52
2023/01/13 06:08:28;;;;;;;1.50;0.77;;;9.00;99.90;;;;;;4950440;28;20856;-52
2023/01/13 06:10:54;;;;;;;3.20;1.60;;;8.80;99.90;;;;;;4951272;28;20548;-52
2023/01/13 06:13:21;;;;;;;2.83;1.20;;;8.60;99.90;;;;;;4951879;28;21071;-52
2023/01/13 06:15:47;;;;;;;6.57;1.20;;;8.60;99.90;;;;;;4949845;28;20469;-52
2023/01/13 06:18:15;;;;;;;3.83;1.07;;;8.40;99.90;;;;;;4946888;28;20500;-52
2023/01/13 06:20:42;;;;;;;2.17;1.00;;;8.40;99.90;;;;;;4949946;28;20548;-52
2023/01/13 06:23:10;;;;;;;3.13;1.13;;;8.30;99.90;;;;;;4948952;28;20569;-52
2023/01/13 06:25:43;;;;;;;2.40;1.00;;;8.20;99.90;;;;;;4951795;29;20565;-53
2023/01/13 06:28:10;;;;;;;2.20;1.10;;;8.20;99.90;;;;;;4949844;28;20535;-52
2023/01/13 06:30:41;;;;;;;1.63;1.10;;;8.20;99.90;;;;;;4967740;23;20497;-53
2023/01/13 06:33:13;;;;;;;2.13;0.87;;;8.10;99.90;;;;;;4959511;28;20576;-53
2023/01/13 06:35:44;;;;;;;1.63;1.00;;;8.10;99.90;;;;;;4966999;28;20917;-53
2023/01/13 06:38:14;;;;;;;1.77;0.90;;;8.10;99.90;;;;;;4960227;28;20469;-53
2023/01/13 06:40:43;;;;;;;2.30;0.90;;;8.10;99.90;;;;;;4963899;28;20572;-52
2023/01/13 06:43:14;;;;;;;3.97;1.13;;;8.10;99.90;;;;;;4962659;28;20503;-54
2023/01/13 06:45:44;;;;;;;1.43;1.10;;;8.10;99.90;;;;;;4967321;28;20461;-52
2023/01/13 06:48:10;;;;;;;4.00;1.37;;;8.10;99.90;;;;;;4970683;28;20541;-54
2023/01/13 06:50:37;;;;;;;3.50;1.63;;;8.10;99.90;;;;;;4965478;28;20565;-53
2023/01/13 06:53:05;;;;;;;4.67;1.70;;;8.00;99.90;;;;;;4961358;28;20525;-53
2023/01/13 06:55:32;;;;;;;1.67;1.13;;;8.00;99.90;;;;;;4969772;28;20560;-54
2023/01/13 06:57:58;;;;;;;2.03;1.63;;;8.00;99.90;;;;;;4969961;28;20552;-52
2023/01/13 07:00:26;;;;;;;3.13;1.30;;;8.00;99.90;;;;;;4959669;28;20517;-52
2023/01/13 07:02:53;;;;;;;2.70;2.10;;;8.00;99.90;;;;;;4963719;28;20486;-53
2023/01/13 07:05:20;;;;;;;3.13;1.37;;;8.00;99.90;;;;;;4961289;28;20551;-53
2023/01/13 07:07:47;;;;;;;2.10;1.00;;;8.10;99.90;;;;;;4966799;28;20593;-54
2023/01/13 07:10:20;;;;;;;1.10;1.10;;;8.20;99.90;;;;;;4965275;28;20593;-51
2023/01/13 07:15:33;;;;;;;1.17;1.10;;;8.40;99.90;;;;;;4963132;28;20461;-53
2023/01/13 07:17:59;;;;;;;2.20;1.07;;;8.50;99.90;;;;;;4969427;28;20523;-52
2023/01/13 07:20:26;;;;;;;1.73;1.60;;;8.40;99.90;;;;;;4960754;28;20502;-53
2023/01/13 07:22:53;;;;;;;1.43;1.33;;;8.50;99.90;;;;;;4965451;28;20543;-52
2023/01/13 07:25:21;;;;;;;3.43;1.33;;;8.50;99.90;;;;;;4968901;28;20483;-54
2023/01/13 07:27:48;;;;;;;2.63;1.77;;;8.50;99.90;;;;;;4968324;28;20495;-53
2023/01/13 07:30:15;;;;;;;1.40;1.30;;;8.60;99.90;;;;;;4958875;28;20592;-53
2023/01/13 07:32:41;;;;;;;2.53;1.90;;;8.60;99.90;;;;;;4963916;28;21029;-53
2023/01/13 07:35:08;;;;;;;9.97;1.57;;;8.60;99.90;;;;;;4970702;28;20906;-52
2023/01/13 07:37:38;;;;;;;2.07;1.50;;;8.60;99.90;;;;;;4964008;28;20547;-53
2023/01/13 07:40:05;;;;;;;1.37;1.27;;;8.60;99.90;;;;;;4962836;28;20474;-53
2023/01/13 07:45:18;;;;;;;2.13;1.20;;;8.60;99.90;;;;;;4966999;28;21239;-53
2023/01/13 07:47:44;;;;;;;1.93;1.83;;;8.60;99.90;;;;;;4963728;28;20878;-53
2023/01/13 07:50:11;;;;;;;3.53;2.40;;;8.60;99.90;;;;;;4970005;28;20581;-53
2023/01/13 07:52:37;;;;;;;4.77;2.03;;;8.60;99.90;;;;;;4962388;28;20521;-53
2023/01/13 07:55:05;;;;;;;2.20;1.53;;;8.60;99.90;;;;;;4992039;28;20445;-52
2023/01/13 07:57:33;;;;;;;1.10;1.10;;;8.50;99.90;;;;;;4967074;28;20460;-53
2023/01/13 07:59:59;;;;;;;2.47;1.33;;;8.40;99.90;;;;;;4970780;28;20571;-52
2023/01/13 08:02:26;;;;;;;3.40;0.70;;;8.40;99.90;;;;;;4971020;28;20542;-53
2023/01/13 08:04:52;;;;;;;1.10;1.10;;;8.50;99.90;;;;;;4965546;28;20588;-54
2023/01/13 08:07:19;;;;;;;2.67;1.60;;;8.50;99.90;;;;;;4970062;28;20560;-52
2023/01/13 08:09:46;;;;;;;1.30;1.10;;;8.50;99.90;;;;;;4970652;28;20488;-53
2023/01/13 08:14:58;;;;;;;2.93;1.40;;;8.50;99.90;;;;;;4966178;28;20467;-54
2023/01/13 08:17:24;;;;;;;1.23;1.13;;;8.50;99.90;;;;;;4970616;28;20544;-53
2023/01/13 08:19:51;;;;;;;1.63;1.37;;;8.60;99.90;;;;;;4965205;28;20572;-53
2023/01/13 08:22:18;;;;;;;1.43;1.33;;;8.60;99.90;;;;;;4962697;28;20457;-52
2023/01/13 08:24:44;;;;;;;2.50;1.00;;;8.60;99.90;;;;;;4968462;28;21844;-53
2023/01/13 08:27:11;;;;;;;1.40;1.30;;;8.60;99.90;;;;;;4969752;28;20909;-54
2023/01/13 08:29:37;;;;;;;1.23;1.23;;;8.60;99.90;;;;;;4967648;28;20520;-54
2023/01/13 08:32:06;;;;;;;1.60;1.20;;;8.70;99.90;;;;;;4964027;28;20908;-54
2023/01/13 08:34:32;;;;;;;0.87;0.70;;;8.70;99.90;;;;;;4967219;28;20623;-54
2023/01/13 08:36:59;;;;;;;1.80;0.80;;;8.70;99.90;;;;;;4969889;28;20559;-55
2023/01/13 08:39:25;;;;;;;1.20;1.10;;;8.70;99.90;;;;;;4965589;28;20550;-54
2023/01/13 08:41:55;;;;;;;2.00;1.30;;;8.80;92.50;;;;;;4966985;28;20557;-54
2023/01/13 08:44:22;;;;;;;3.13;0.93;;;8.80;72.30;;;;;;4966829;28;20480;-54
2023/01/13 08:46:49;;;;;;;3.90;1.17;;;8.90;26.40;;;;;;4971837;28;20493;-54
2023/01/13 08:49:17;;;;;;;2.50;1.97;;;8.90;29.40;;;;;;4970498;28;20877;-54
2023/01/13 08:51:44;;;;;;;3.13;1.70;;;8.80;27.50;;;;;;4968163;28;20571;-53
2023/01/13 08:54:11;;;;;;;1.57;0.87;;;8.90;43.50;;;;;;4960066;28;20556;-53
2023/01/13 08:56:38;;;;;;;1.20;1.10;;;8.90;43.20;;;;;;4954833;28;20492;-53
2023/01/13 08:59:08;;;;;;;1.50;0.80;;;8.80;44.40;;;;;;4954544;28;20476;-54
2023/01/13 09:01:37;;;;;;;2.27;1.00;;;8.80;53.40;;;;;;4966760;28;20563;-54
2023/01/13 09:04:04;;;;;;;3.73;1.57;;;8.90;58.80;;;;;;4958515;28;20795;-53
2023/01/13 09:06:32;;;;;;;1.37;1.00;;;8.90;56.00;;;;;;4967200;28;20568;-54
2023/01/13 09:08:59;;;;;;;1.40;1.10;;;8.90;54.50;;;;;;4966822;28;20555;-53
2023/01/13 09:14:18;;;;;;;2.20;1.43;;;8.80;49.50;;;;;;4956774;28;20489;-54
2023/01/13 09:16:44;;;;;;;1.47;0.80;;;8.80;44.10;;;;;;4957678;28;20477;-54
2023/01/13 09:19:11;;;;;;;1.40;0.80;;;8.80;40.00;;;;;;4959524;28;20496;-53
2023/01/13 09:21:39;;;;;;;1.67;1.03;;;8.70;38.10;;;;;;4959260;28;20580;-53
2023/01/13 09:24:06;;;;;;;1.03;0.93;;;8.70;34.50;;;;;;4953540;28;20469;-53
2023/01/13 09:26:32;;;;;;;1.70;1.50;;;8.70;39.00;;;;;;4963259;28;20553;-54
2023/01/13 09:28:59;;;;;;;1.23;1.10;;;8.80;39.00;;;;;;4965361;28;20555;-53
2023/01/13 09:31:26;;;;;;;2.73;1.43;;;8.80;40.00;;;;;;4965973;28;22637;-53
2023/01/13 09:36:38;;;;;;;1.10;0.80;;;8.80;40.70;;;;;;4961789;28;20460;-53
2023/01/13 09:39:05;;;;;;;1.87;0.93;;;8.90;43.70;;;;;;4968070;28;20888;-54
2023/01/13 09:44:23;;;;;;;2.13;1.00;;;9.00;50.10;;;;;;4970604;28;21112;-54
2023/01/13 09:46:53;;;;;;;3.63;1.10;;;9.10;52.50;;;;;;4966323;28;20552;-54
2023/01/13 09:49:23;;;;;;;2.27;1.10;;;9.00;51.30;;;;;;4966304;28;20547;-54
2023/01/13 09:51:57;;;;;;;1.57;1.10;;;8.90;52.40;;;;;;4960732;28;20614;-54
2023/01/13 09:54:31;;;;;;;3.00;1.20;;;8.90;55.40;;;;;;4964160;28;20575;-53
2023/01/13 09:56:58;;;;;;;3.10;1.70;;;9.80;79.20;;;;;;4965515;28;20974;-54
2023/01/13 09:59:29;;;;;;;2.03;1.20;;;10.90;99.90;;;;;;4968394;28;20493;-54
2023/01/13 10:02:00;;;;;;;8.10;1.60;;;12.30;99.90;;;;;;4963107;28;20906;-54
2023/01/13 10:04:27;;;;;;;1.83;1.50;;;12.80;57.10;;;;;;4964420;28;20551;-53
2023/01/13 10:07:01;;;;;;;10.97;2.13;;;12.10;88.00;;;;;;4971430;28;20947;-54
2023/01/13 10:09:46;;;;;;;3.17;1.37;;;12.40;99.90;;;;;;4970451;28;20542;-53
2023/01/13 10:15:03;;;;;;;8.00;1.80;;;13.40;99.90;;;;;;4966424;28;21106;-54
2023/01/13 10:17:34;;;;;;;3.80;1.50;;;13.30;99.90;;;;;;4971169;28;20489;-53
2023/01/13 10:20:11;;;;;;;2.13;1.20;;;13.50;24.70;;;;;;4962290;28;20554;-54
2023/01/13 10:22:50;;;;;;;4.67;1.80;;;13.80;22.90;;;;;;4968960;28;20476;-54
2023/01/13 10:25:45;;;;;;;1.33;1.23;;;13.90;29.00;;;;;;4956999;28;20457;-54
2023/01/13 10:28:13;;;;;;;2.40;1.90;;;13.10;99.90;;;;;;4973666;28;20554;-53
2023/01/13 10:30:42;;;;;;;3.00;1.53;;;12.10;99.90;;;;;;4974182;28;20523;-53
2023/01/13 10:33:16;;;;;;;2.60;1.53;;;11.50;99.90;;;;;;4967692;28;20577;-54
2023/01/13 10:35:54;;;;;;;4.43;1.27;;;10.70;67.10;;;;;;4967647;28;20544;-54
2023/01/13 10:38:24;;;;;;;5.47;1.60;;;10.20;31.60;;;;;;4975245;28;20456;-54
2023/01/13 10:40:54;;;;;;;4.07;1.60;;;10.00;99.90;;;;;;4973600;28;20574;-53
2023/01/13 10:43:21;;;;;;;1.80;1.00;;;9.90;99.90;;;;;;4973538;28;20555;-53
2023/01/13 10:46:00;;;;;;;3.03;1.00;;;9.80;99.90;;;;;;4963542;28;20457;-54
2023/01/13 10:48:35;;;;;;;2.70;1.30;;;9.70;99.90;;;;;;4965643;28;20505;-55
2023/01/13 10:51:27;;;;;;;3.27;1.10;;;9.60;99.90;;;;;;4960631;28;20499;-53
2023/01/13 10:54:00;;;;;;;3.37;1.03;;;9.60;99.90;;;;;;4963567;28;21089;-53
2023/01/13 10:56:30;;;;;;;10.77;2.93;;;9.50;99.90;;;;;;4975135;28;20453;-54
2023/01/13 10:59:21;;;;;;;2.97;1.50;;;9.60;99.90;;;;;;4971878;28;20567;-55
2023/01/13 11:02:01;;;;;;;1.83;1.23;;;9.50;99.90;;;;;;4961320;28;20493;-54
2023/01/13 11:04:31;;;;;;;1.93;1.30;;;9.60;99.90;;;;;;4973325;28;21034;-54
2023/01/13 11:06:58;;;;;;;18.93;1.47;;;9.60;99.90;;;;;;4974689;28;20456;-54
2023/01/13 11:09:28;;;;;;;1.93;1.40;;;9.60;99.90;;;;;;4968629;28;20512;-53
2023/01/13 11:11:56;;;;;;;2.17;1.60;;;9.50;99.90;;;;;;4974947;28;20536;-54
2023/01/13 11:14:41;;;;;;;1.10;0.83;;;9.50;99.90;;;;;;4968997;28;20482;-54
2023/01/13 11:17:23;;;;;;;1.07;0.90;;;9.50;99.90;;;;;;4960266;28;20724;-53
2023/01/13 11:19:55;;;;;;;1.70;1.20;;;9.60;99.90;;;;;;4963028;28;20573;-54
2023/01/13 11:22:25;;;;;;;4.73;1.33;;;9.70;99.90;;;;;;4971587;28;20560;-54
2023/01/13 11:24:56;;;;;;;1.67;1.10;;;9.80;99.90;;;;;;4966725;28;20983;-54
2023/01/13 11:27:33;;;;;;;2.23;0.93;;;9.70;25.70;;;;;;4964404;28;20556;-54
2023/01/13 11:30:08;;;;;;;1.80;1.10;;;10.00;36.50;;;;;;4966700;28;20585;-54
2023/01/13 11:32:40;;;;;;;1.07;0.90;;;10.40;76.40;;;;;;4961989;28;20520;-55
2023/01/13 11:35:16;;;;;;;3.47;1.10;;;10.20;63.90;;;;;;4960768;28;22184;-53
2023/01/13 11:37:49;;;;;;;2.50;1.10;;;11.10;83.30;;;;;;4959764;28;21111;-53
2023/01/13 11:40:25;;;;;;;1.27;0.90;;;10.70;99.90;;;;;;4967025;28;20585;-52
2023/01/13 11:43:00;;;;;;;6.00;1.73;;;10.60;98.70;;;;;;4967928;28;20471;-53
2023/01/13 11:45:33;;;;;;;1.73;0.83;;;11.00;99.90;;;;;;4968050;28;20551;-54
2023/01/13 11:48:01;;;;;;;2.73;1.10;;;11.60;99.90;;;;;;4963685;28;20556;-54
2023/01/13 11:50:34;;;;;;;1.63;1.00;;;11.20;99.90;;;;;;4967503;28;20566;-54
2023/01/13 11:53:24;;;;;;;1.00;1.00;;;10.80;99.90;;;;;;4966038;28;21273;-54
2023/01/13 11:56:05;;;;;;;1.53;0.80;;;10.60;99.90;;;;;;4966771;28;20563;-54
2023/01/13 11:58:48;;;;;;;1.00;0.90;;;10.50;99.90;;;;;;4967010;28;20499;-54
2023/01/13 12:01:45;;;;;;;1.80;1.30;;;10.50;99.90;;;;;;4967990;28;21085;-53
2023/01/13 12:04:24;;;;;;;2.10;1.23;;;10.50;99.90;;;;;;4963045;28;20552;-54
2023/01/13 12:06:58;;;;;;;3.17;1.40;;;10.60;99.90;;;;;;4970411;28;20484;-53
2023/01/13 12:09:35;;;;;;;1.30;1.20;;;10.60;99.90;;;;;;4972250;28;20562;-56
2023/01/13 12:12:21;;;;;;;1.57;1.13;;;10.60;99.90;;;;;;4968996;28;20476;-54
2023/01/13 12:15:21;;;;;;;8.40;1.63;;;10.70;99.90;;;;;;4963463;28;20577;-53
2023/01/13 12:17:55;;;;;;;9.10;1.30;;;10.90;99.90;;;;;;4956699;28;20524;-54
2023/01/13 12:20:32;;;;;;;9.10;1.70;;;11.10;99.90;;;;;;4970198;28;20571;-54
2023/01/13 12:23:03;;;;;;;10.33;1.83;;;10.80;99.90;;;;;;4967406;28;20544;-53
2023/01/13 12:25:35;;;;;;;3.30;1.73;;;10.70;99.90;;;;;;4966056;28;20520;-54
2023/01/13 12:28:12;;;;;;;2.67;1.63;;;11.00;99.90;;;;;;4961946;28;20461;-53
2023/01/13 12:30:42;;;;;;;2.50;1.30;;;11.00;99.90;;;;;;4979741;23;20496;-53
2023/01/13 12:33:19;;;;;;;3.30;2.10;;;10.70;99.90;;;;;;4965497;28;20560;-53
2023/01/13 12:35:53;;;;;;;4.50;1.20;;;10.50;99.90;;;;;;4963364;28;20458;-53
2023/01/13 12:38:29;;;;;;;3.43;1.10;;;10.30;99.90;;;;;;4959414;28;20541;-53
2023/01/13 12:41:06;;;;;;;3.20;1.27;;;10.30;99.90;;;;;;4969287;28;20555;-53
2023/01/13 12:46:55;;;;;;;6.60;1.33;;;10.20;99.90;;;;;;4959167;28;20460;-52
2023/01/13 12:49:27;;;;;;;3.47;1.50;;;10.90;21.70;;;;;;4969089;28;20464;-58
2023/01/13 12:52:21;;;;;;;5.53;1.87;;;11.20;41.80;;;;;;4970455;28;20570;-52
2023/01/13 12:55:13;;;;;;;3.13;1.40;;;11.20;40.90;;;;;;4963822;28;20485;-52
2023/01/13 12:57:44;;;;;;;5.93;1.80;;;11.60;57.40;;;;;;4960616;28;20492;-52
2023/01/13 13:00:18;;;;;;;4.50;1.47;;;11.50;80.30;;;;;;4971418;28;20983;-52
2023/01/13 13:03:21;;;;;;;5.77;1.87;;;10.90;71.50;;;;;;4964314;28;21059;-51
2023/01/13 13:05:55;;;;;;;5.17;1.97;;;10.70;68.10;;;;;;4959994;28;20578;-51
2023/01/13 13:08:26;;;;;;;4.37;2.23;;;10.80;62.40;;;;;;4963505;28;20902;-52
2023/01/13 13:13:16;;;;;;;6.10;1.60;;;10.70;66.00;;;;;;4959645;28;20562;-52
2023/01/13 13:14:00;;;;;;;4.30;1.20;;;10.70;53.10;;;;;;4955585;28;20496;-52
2023/01/13 13:16:48;;;;;;;4.43;1.47;;;11.00;58.30;;;;;;4958133;28;20464;-51
2023/01/13 13:19:47;;;;;;;9.70;1.73;;;11.00;69.90;;;;;;4968977;28;20461;-51
2023/01/13 13:22:35;;;;;;;5.90;1.70;;;11.90;86.00;;;;;;4964753;28;20536;-51
2023/01/13 13:25:24;;;;;;;6.80;1.50;;;11.90;99.90;;;;;;4961307;28;20555;-51
2023/01/13 13:28:07;;;;;;;9.53;2.17;;;11.40;92.60;;;;;;4962496;28;20479;-51
2023/01/13 13:30:36;;;;;;;3.33;1.70;;;11.40;91.80;;;;;;4967770;28;21049;-51
2023/01/13 13:33:17;;;;;;;3.83;1.40;;;11.50;99.90;;;;;;4971760;28;20554;-51
2023/01/13 13:36:01;;;;;;;5.40;1.47;;;11.50;99.90;;;;;;4973834;28;20553;-51
2023/01/13 13:47:10;;;;;;;4.10;2.57;;;10.30;75.20;;;;;;4973942;28;20799;-51
2023/01/13 13:49:41;;;;;;;5.80;1.70;;;10.60;69.80;;;;;;4975102;28;20558;-51
2023/01/13 13:52:17;;;;;;;4.47;2.23;;;10.60;75.70;;;;;;4971449;28;20483;-51
2023/01/13 13:54:48;;;;;;;4.80;1.70;;;10.30;66.60;;;;;;4967569;28;20585;-52
2023/01/13 13:57:17;;;;;;;6.33;1.83;;;10.20;54.40;;;;;;4964879;28;20592;-51
2023/01/13 13:59:44;;;;;;;6.93;1.50;;;10.00;49.20;;;;;;4958077;28;20501;-51
2023/01/13 14:02:19;;;;;;;2.90;1.20;;;10.00;41.20;;;;;;4966313;28;20520;-51
2023/01/13 14:04:47;;;;;;;5.97;1.77;;;10.00;29.00;;;;;;4960825;28;20464;-50
2023/01/13 14:07:19;;;;;;;4.60;2.43;;;9.90;23.30;;;;;;4957986;28;20911;-52
2023/01/13 14:09:47;;;;;;;2.60;1.37;;;9.80;89.30;;;;;;4963323;28;20474;-52
2023/01/13 14:12:18;;;;;;;11.00;2.03;;;9.80;99.90;;;;;;4958224;28;20524;-52